Aviation Digital Data Service (ADDS)

Output produced by METARs form (2126 UTC 24 August 2016)
found at http://aviationweather.gov/adds/metars/
 
KRIC 241742Z 2418/2518 14006KT P6SM SCT050 SCT250 
     FM242200 18004KT P6SM SKC 
     FM251500 20007KT P6SM SCT050 BKN250